createdAt,value
2017-11-22T00:00:55.736Z,6.30
2017-11-22T00:03:25.180Z,6.40
2017-11-22T00:05:56.369Z,6.40
2017-11-22T00:08:26.037Z,6.40
2017-11-22T00:10:55.596Z,6.40
2017-11-22T00:13:25.237Z,6.40
2017-11-22T00:15:54.946Z,6.40
2017-11-22T00:18:24.582Z,6.40
2017-11-22T00:20:54.262Z,6.40
2017-11-22T00:23:23.900Z,6.40
2017-11-22T00:25:53.572Z,6.40
2017-11-22T00:28:23.224Z,6.40
2017-11-22T00:30:52.889Z,6.50
2017-11-22T00:33:22.575Z,6.50
2017-11-22T00:35:52.220Z,6.50
2017-11-22T00:38:21.907Z,6.60
2017-11-22T00:40:51.536Z,6.60
2017-11-22T00:43:21.261Z,6.60
2017-11-22T00:45:50.926Z,6.60
2017-11-22T00:48:20.597Z,6.60
2017-11-22T00:50:50.273Z,6.60
2017-11-22T00:53:19.913Z,6.60
2017-11-22T00:55:49.616Z,6.60
2017-11-22T00:58:19.275Z,6.60
2017-11-22T01:00:48.918Z,6.60
2017-11-22T01:03:18.397Z,6.70
2017-11-22T01:05:48.051Z,6.70
2017-11-22T01:08:18.011Z,6.70
2017-11-22T01:10:47.666Z,6.70
2017-11-22T01:13:17.447Z,6.80
2017-11-22T01:15:47.093Z,6.80
2017-11-22T01:18:16.776Z,6.80
2017-11-22T01:20:46.449Z,6.80
2017-11-22T01:23:16.098Z,6.80
2017-11-22T01:25:45.807Z,6.90
2017-11-22T01:28:15.803Z,6.90
2017-11-22T01:30:45.472Z,7.00
2017-11-22T01:33:15.886Z,7.00
2017-11-22T01:35:45.569Z,7.00
2017-11-22T01:38:15.200Z,7.00
2017-11-22T01:40:44.582Z,7.10
2017-11-22T01:43:14.285Z,7.10
2017-11-22T01:45:43.268Z,7.10
2017-11-22T01:48:12.048Z,7.10
2017-11-22T01:50:41.510Z,7.10
2017-11-22T01:53:10.821Z,7.20
2017-11-22T01:55:40.947Z,7.10
2017-11-22T01:58:10.385Z,7.10
2017-11-22T02:00:51.124Z,7.20
2017-11-22T02:03:20.269Z,7.20
2017-11-22T02:05:49.923Z,7.30
2017-11-22T02:08:20.354Z,7.50
2017-11-22T02:10:50.033Z,7.50
2017-11-22T02:13:20.249Z,7.70
2017-11-22T02:15:49.993Z,7.70
2017-11-22T02:18:20.437Z,7.80
2017-11-22T02:20:50.112Z,7.80
2017-11-22T02:23:20.582Z,8.00
2017-11-22T02:25:50.237Z,7.90
2017-11-22T02:28:20.696Z,8.10
2017-11-22T02:30:49.693Z,8.10
2017-11-22T02:33:18.851Z,8.20
2017-11-22T02:35:48.501Z,8.20
2017-11-22T02:38:17.851Z,8.30
2017-11-22T02:40:47.434Z,8.40
2017-11-22T02:43:16.775Z,8.60
2017-11-22T02:45:46.105Z,8.60
2017-11-22T02:48:15.480Z,8.70
2017-11-22T02:50:45.149Z,8.80
2017-11-22T02:53:14.845Z,8.90
2017-11-22T02:55:43.832Z,9.00
2017-11-22T02:58:12.637Z,9.10
2017-11-22T03:00:41.948Z,9.10
2017-11-22T03:03:11.077Z,9.20
2017-11-22T03:05:40.517Z,9.30
2017-11-22T03:08:09.548Z,9.30
2017-11-22T03:10:39.231Z,9.30
2017-11-22T03:13:09.063Z,9.20
2017-11-22T03:15:39.013Z,9.20
2017-11-22T03:18:08.753Z,9.30
2017-11-22T03:20:38.449Z,9.20
2017-11-22T03:23:08.934Z,9.20
2017-11-22T03:25:38.608Z,9.20
2017-11-22T03:28:08.120Z,9.20
2017-11-22T03:30:37.824Z,9.20
2017-11-22T03:33:07.534Z,9.20
2017-11-22T03:35:36.550Z,9.20
2017-11-22T03:38:05.717Z,9.20
2017-11-22T03:40:36.466Z,9.20
2017-11-22T03:43:05.821Z,9.10
2017-11-22T03:45:35.200Z,9.20
2017-11-22T03:48:10.421Z,9.20
2017-11-22T03:50:39.949Z,9.20
2017-11-22T03:53:15.215Z,9.10
2017-11-22T03:55:44.771Z,9.10
2017-11-22T03:58:17.292Z,9.10
2017-11-22T04:00:46.335Z,9.00
2017-11-22T04:03:17.304Z,9.00
2017-11-22T04:05:57.711Z,9.00
2017-11-22T04:08:28.132Z,9.00
2017-11-22T04:10:58.587Z,8.90
2017-11-22T04:13:28.251Z,9.00
2017-11-22T04:15:57.972Z,9.00
2017-11-22T04:18:27.612Z,9.00
2017-11-22T04:20:57.292Z,9.00
2017-11-22T04:23:26.947Z,9.00
2017-11-22T04:25:56.617Z,8.90
2017-11-22T04:28:26.290Z,8.90
2017-11-22T04:30:55.962Z,8.90
2017-11-22T04:33:25.459Z,8.90
2017-11-22T04:35:55.104Z,8.90
2017-11-22T04:38:24.787Z,8.90
2017-11-22T04:40:54.457Z,8.90
2017-11-22T04:43:24.105Z,8.90
2017-11-22T04:45:53.419Z,8.80
2017-11-22T04:48:22.425Z,8.80
2017-11-22T04:50:52.068Z,8.80
2017-11-22T04:53:21.384Z,8.80
2017-11-22T04:55:51.843Z,8.80
2017-11-22T04:58:21.487Z,8.80
2017-11-22T05:00:50.812Z,8.80
2017-11-22T05:03:20.499Z,8.80
2017-11-22T05:05:50.157Z,8.80
2017-11-22T05:08:19.455Z,8.80
2017-11-22T05:10:49.301Z,8.80
2017-11-22T05:13:18.942Z,8.80
2017-11-22T05:15:48.635Z,8.80
2017-11-22T05:18:18.295Z,8.80
2017-11-22T05:20:48.746Z,8.80
2017-11-22T05:23:18.392Z,8.80
2017-11-22T05:25:48.056Z,8.80
2017-11-22T05:28:17.699Z,8.80
2017-11-22T05:30:47.399Z,8.80
2017-11-22T05:33:17.194Z,8.80
2017-11-22T05:35:46.882Z,8.80
2017-11-22T05:38:17.360Z,8.70
2017-11-22T05:40:47.020Z,8.70
2017-11-22T05:43:17.466Z,8.60
2017-11-22T05:45:47.100Z,8.60
2017-11-22T05:48:16.763Z,8.60
2017-11-22T05:50:47.750Z,8.50
2017-11-22T05:53:17.437Z,8.50
2017-11-22T05:55:46.838Z,8.40
2017-11-22T05:58:15.948Z,8.40
2017-11-22T06:00:54.307Z,8.30
2017-11-22T06:03:23.742Z,8.30
2017-11-22T06:05:53.435Z,8.30
2017-11-22T06:08:23.844Z,8.30
2017-11-22T06:10:53.518Z,8.30
2017-11-22T06:13:23.198Z,8.30
2017-11-22T06:15:52.908Z,8.30
2017-11-22T06:18:23.360Z,8.30
2017-11-22T06:20:52.996Z,8.30
2017-11-22T06:23:22.753Z,8.30
2017-11-22T06:25:52.403Z,8.30
2017-11-22T06:28:22.078Z,8.30
2017-11-22T06:30:51.721Z,8.30
2017-11-22T06:33:21.389Z,8.30
2017-11-22T06:35:51.823Z,8.30
2017-11-22T06:38:21.459Z,8.20
2017-11-22T06:40:51.154Z,8.20
2017-11-22T06:43:21.503Z,8.20
2017-11-22T06:45:51.173Z,8.20
2017-11-22T06:48:20.844Z,8.20
2017-11-22T06:50:50.534Z,8.20
2017-11-22T06:53:19.851Z,8.20
2017-11-22T06:55:49.502Z,8.20
2017-11-22T06:58:19.179Z,8.20
2017-11-22T07:00:48.835Z,8.20
2017-11-22T07:03:24.138Z,8.20
2017-11-22T07:05:54.556Z,8.20
2017-11-22T07:08:24.230Z,8.10
2017-11-22T07:10:53.870Z,8.10
2017-11-22T07:13:23.596Z,8.10
2017-11-22T07:15:55.187Z,8.10
2017-11-22T07:18:24.884Z,8.10
2017-11-22T07:20:54.519Z,8.10
2017-11-22T07:23:24.213Z,8.00
2017-11-22T07:25:53.879Z,8.10
2017-11-22T07:28:24.358Z,8.00
2017-11-22T07:30:54.007Z,8.00
2017-11-22T07:33:23.680Z,8.00
2017-11-22T07:35:58.771Z,7.90
2017-11-22T07:38:28.441Z,7.90
2017-11-22T07:40:58.145Z,7.90
2017-11-22T07:43:27.868Z,7.90
2017-11-22T07:45:57.543Z,7.90
2017-11-22T07:48:27.202Z,7.90
2017-11-22T07:50:58.835Z,7.90
2017-11-22T07:53:28.479Z,8.00
2017-11-22T07:56:00.115Z,8.00
2017-11-22T07:58:29.804Z,8.00
2017-11-22T08:00:59.180Z,8.00
2017-11-22T08:03:28.288Z,8.00
2017-11-22T08:05:57.070Z,8.10
2017-11-22T08:08:26.804Z,8.10
2017-11-22T08:10:56.463Z,8.10
2017-11-22T08:13:26.913Z,8.20
2017-11-22T08:15:56.596Z,8.20
2017-11-22T08:18:26.460Z,8.30
2017-11-22T08:20:56.161Z,8.30
2017-11-22T08:23:25.803Z,8.40
2017-11-22T08:25:55.310Z,8.40
2017-11-22T08:28:25.019Z,8.40
2017-11-22T08:30:54.679Z,8.40
2017-11-22T08:33:24.771Z,8.40
2017-11-22T08:35:55.247Z,8.50
2017-11-22T08:38:24.905Z,8.50
2017-11-22T08:40:54.572Z,8.50
2017-11-22T08:43:29.782Z,8.60
2017-11-22T08:45:59.459Z,8.60
2017-11-22T08:48:29.100Z,8.60
2017-11-22T08:50:58.813Z,8.70
2017-11-22T08:53:28.457Z,8.70
2017-11-22T08:56:03.693Z,8.70
2017-11-22T08:58:33.337Z,8.70
2017-11-22T09:01:03.032Z,8.70
2017-11-22T09:03:38.271Z,8.70
2017-11-22T09:06:13.343Z,8.70
2017-11-22T09:08:43.031Z,8.70
2017-11-22T09:11:12.671Z,8.70
2017-11-22T09:13:42.373Z,8.80
2017-11-22T09:16:12.786Z,8.80
2017-11-22T09:18:43.240Z,8.80
2017-11-22T09:21:12.355Z,8.80
2017-11-22T09:23:42.021Z,8.80
2017-11-22T09:26:11.703Z,8.90
2017-11-22T09:28:41.361Z,8.90
2017-11-22T09:31:17.384Z,9.00
2017-11-22T09:33:47.036Z,9.00
2017-11-22T09:36:16.915Z,9.10
2017-11-22T09:38:46.363Z,9.20
2017-11-22T09:41:16.035Z,9.30
2017-11-22T09:43:45.687Z,9.40
2017-11-22T09:46:15.371Z,9.30
2017-11-22T09:48:45.776Z,9.30
2017-11-22T09:51:15.418Z,9.30
2017-11-22T09:53:45.119Z,9.30
2017-11-22T09:56:15.522Z,9.30
2017-11-22T09:58:45.180Z,9.30
2017-11-22T10:01:14.847Z,9.30
2017-11-22T10:03:44.488Z,9.40
2017-11-22T10:06:13.974Z,9.40
2017-11-22T10:08:44.415Z,9.40
2017-11-22T10:11:14.068Z,9.40
2017-11-22T10:13:43.752Z,9.50
2017-11-22T10:16:13.401Z,9.50
2017-11-22T10:18:42.900Z,9.50
2017-11-22T10:21:12.176Z,9.50
2017-11-22T10:23:41.617Z,9.60
2017-11-22T10:26:10.811Z,9.60
2017-11-22T10:28:40.257Z,9.70
2017-11-22T10:31:09.708Z,9.80
2017-11-22T10:33:39.419Z,9.90
2017-11-22T10:36:08.413Z,9.90
2017-11-22T10:38:38.053Z,10.00
2017-11-22T10:41:08.498Z,10.00
2017-11-22T10:43:38.140Z,10.00
2017-11-22T10:46:07.823Z,10.00
2017-11-22T10:48:37.458Z,10.10
2017-11-22T10:51:07.126Z,10.10
2017-11-22T10:53:37.610Z,10.00
2017-11-22T10:56:06.616Z,10.00
2017-11-22T10:58:36.265Z,10.10
2017-11-22T11:01:05.936Z,10.00
2017-11-22T11:03:35.594Z,10.00
2017-11-22T11:06:05.252Z,10.10
2017-11-22T11:08:34.922Z,10.10
2017-11-22T11:11:04.572Z,10.10
2017-11-22T11:13:33.874Z,10.10
2017-11-22T11:16:03.547Z,10.10
2017-11-22T11:18:33.208Z,10.10
2017-11-22T11:21:04.502Z,10.10
2017-11-22T11:23:34.176Z,10.10
2017-11-22T11:26:04.608Z,10.20
2017-11-22T11:28:34.255Z,10.10
2017-11-22T11:31:03.604Z,10.20
2017-11-22T11:33:34.043Z,10.20
2017-11-22T11:36:15.955Z,10.20
2017-11-22T11:38:44.768Z,10.20
2017-11-22T11:41:14.422Z,10.20
2017-11-22T11:43:44.077Z,10.20
2017-11-22T11:46:13.382Z,10.20
2017-11-22T11:48:43.029Z,10.30
2017-11-22T11:51:12.715Z,10.30
2017-11-22T11:53:42.358Z,10.40
2017-11-22T11:56:11.472Z,10.40
2017-11-22T11:58:42.040Z,10.50
2017-11-22T12:01:11.337Z,10.50
2017-11-22T12:03:40.778Z,10.50
2017-11-22T12:06:10.457Z,10.50
2017-11-22T12:08:40.124Z,10.50
2017-11-22T12:11:12.488Z,10.50
2017-11-22T12:13:42.940Z,10.40
2017-11-22T12:16:12.582Z,10.40
2017-11-22T12:18:42.281Z,10.50
2017-11-22T12:21:13.859Z,10.50
2017-11-22T12:23:43.572Z,10.50
2017-11-22T12:26:13.212Z,10.50
2017-11-22T12:28:43.635Z,10.60
2017-11-22T12:31:14.104Z,10.60
2017-11-22T12:33:43.737Z,10.60
2017-11-22T12:36:13.452Z,10.60
2017-11-22T12:38:43.137Z,10.70
2017-11-22T12:41:12.940Z,10.70
2017-11-22T12:43:42.571Z,10.70
2017-11-22T12:46:12.247Z,10.70
2017-11-22T12:48:41.900Z,10.80
2017-11-22T12:51:11.201Z,10.80
2017-11-22T12:53:40.887Z,10.80
2017-11-22T12:56:10.528Z,10.80
2017-11-22T12:58:40.196Z,10.80
2017-11-22T13:01:09.845Z,10.80
2017-11-22T13:03:39.532Z,10.80
2017-11-22T13:06:09.178Z,10.80
2017-11-22T13:08:38.473Z,10.80
2017-11-22T13:11:10.142Z,10.80
2017-11-22T13:13:40.566Z,10.80
2017-11-22T13:16:09.939Z,10.80
2017-11-22T13:18:39.571Z,10.80
2017-11-22T13:21:10.015Z,10.80
2017-11-22T13:23:40.427Z,10.80
2017-11-22T13:26:10.875Z,10.80
2017-11-22T13:28:41.286Z,10.80
2017-11-22T13:31:10.961Z,10.80
2017-11-22T13:33:40.621Z,10.80
2017-11-22T13:36:10.388Z,10.70
2017-11-22T13:38:39.732Z,10.70
2017-11-22T13:41:09.507Z,10.70
2017-11-22T13:43:38.850Z,10.70
2017-11-22T13:46:07.894Z,10.70
2017-11-22T13:48:36.855Z,10.70
2017-11-22T13:51:06.187Z,10.70
2017-11-22T13:53:34.994Z,10.70
2017-11-22T13:56:03.988Z,10.70
2017-11-22T13:58:33.312Z,10.70
2017-11-22T14:01:03.105Z,10.70
2017-11-22T14:03:31.878Z,10.70
2017-11-22T14:06:00.888Z,10.80
2017-11-22T14:08:29.919Z,10.80
2017-11-22T14:10:59.667Z,10.80
2017-11-22T14:13:28.697Z,10.70
2017-11-22T14:15:58.359Z,10.70
2017-11-22T14:18:27.461Z,10.80
2017-11-22T14:20:57.087Z,10.80
2017-11-22T14:23:26.090Z,10.80
2017-11-22T14:25:54.859Z,10.80
2017-11-22T14:28:24.182Z,10.80
2017-11-22T14:30:53.245Z,10.70
2017-11-22T14:33:22.210Z,10.70
2017-11-22T14:35:51.183Z,10.70
2017-11-22T14:38:20.972Z,10.70
2017-11-22T14:40:50.753Z,10.70
2017-11-22T14:43:20.094Z,10.70
2017-11-22T14:45:49.097Z,10.70
2017-11-22T14:48:18.073Z,10.70
2017-11-22T14:50:47.648Z,10.60
2017-11-22T14:53:17.300Z,10.60
2017-11-22T14:55:46.283Z,10.60
2017-11-22T14:58:18.187Z,10.60
2017-11-22T15:00:47.167Z,10.50
2017-11-22T15:03:16.729Z,10.50
2017-11-22T15:05:45.741Z,10.50
2017-11-22T15:08:14.523Z,10.50
2017-11-22T15:10:43.902Z,10.50
2017-11-22T15:13:12.752Z,10.40
2017-11-22T15:15:41.734Z,10.40
2017-11-22T15:18:10.730Z,10.40
2017-11-22T15:20:41.087Z,10.40
2017-11-22T15:23:10.069Z,10.40
2017-11-22T15:25:39.380Z,10.40
2017-11-22T15:28:08.709Z,10.40
2017-11-22T15:30:37.699Z,10.40
2017-11-22T15:33:06.810Z,10.40
2017-11-22T15:35:35.816Z,10.40
2017-11-22T15:38:05.135Z,10.40
2017-11-22T15:40:35.583Z,10.40
2017-11-22T15:43:04.904Z,10.40
2017-11-22T15:45:34.548Z,10.30
2017-11-22T15:48:04.020Z,10.40
2017-11-22T15:50:33.667Z,10.30
2017-11-22T15:53:03.378Z,10.30
2017-11-22T15:55:33.024Z,10.30
2017-11-22T15:58:02.752Z,10.30
2017-11-22T16:00:32.403Z,10.30
2017-11-22T16:03:01.757Z,10.40
2017-11-22T16:05:31.457Z,10.40
2017-11-22T16:08:01.201Z,10.40
2017-11-22T16:10:30.712Z,10.30
2017-11-22T16:13:00.360Z,10.30
2017-11-22T16:15:30.823Z,10.30
2017-11-22T16:18:00.473Z,10.30
2017-11-22T16:20:29.792Z,10.30
2017-11-22T16:23:00.261Z,10.30
2017-11-22T16:25:29.603Z,10.30
2017-11-22T16:27:59.288Z,10.30
2017-11-22T16:30:28.994Z,10.30
2017-11-22T16:32:58.816Z,10.30
2017-11-22T16:35:28.505Z,10.40
2017-11-22T16:37:58.338Z,10.40
2017-11-22T16:40:27.806Z,10.40
2017-11-22T16:42:56.807Z,10.40
2017-11-22T16:45:26.502Z,10.30
2017-11-22T16:47:56.919Z,10.30
2017-11-22T16:50:27.386Z,10.30
2017-11-22T16:52:57.049Z,10.30
2017-11-22T16:55:27.520Z,10.20
2017-11-22T16:57:57.164Z,10.20
2017-11-22T17:00:26.499Z,10.20
2017-11-22T17:02:56.750Z,10.10
2017-11-22T17:05:26.405Z,10.10
2017-11-22T17:07:55.733Z,10.20
2017-11-22T17:10:25.414Z,10.20
2017-11-22T17:12:55.057Z,10.10
2017-11-22T17:15:25.158Z,10.10
2017-11-22T17:17:54.839Z,10.10
2017-11-22T17:20:24.514Z,10.10
2017-11-22T17:22:54.125Z,10.10
2017-11-22T17:25:23.322Z,10.10
2017-11-22T17:27:53.000Z,10.10
2017-11-22T17:30:22.569Z,10.00
2017-11-22T17:32:52.014Z,10.10
2017-11-22T17:35:21.333Z,10.00
2017-11-22T17:37:51.471Z,10.00
2017-11-22T17:40:20.780Z,10.00
2017-11-22T17:42:50.434Z,10.00
2017-11-22T17:45:20.122Z,10.00
2017-11-22T17:47:49.778Z,10.00
2017-11-22T17:50:19.887Z,10.00
2017-11-22T17:52:49.548Z,10.00
2017-11-22T17:55:19.023Z,10.00
2017-11-22T17:57:48.336Z,10.00
2017-11-22T18:00:17.331Z,9.90
2017-11-22T18:02:46.992Z,9.90
2017-11-22T18:05:16.639Z,9.80
2017-11-22T18:07:45.987Z,9.80
2017-11-22T18:10:15.293Z,9.70
2017-11-22T18:12:44.285Z,9.70
2017-11-22T18:15:13.648Z,9.60
2017-11-22T18:17:43.288Z,9.60
2017-11-22T18:20:12.339Z,9.50
2017-11-22T18:22:41.919Z,9.40
2017-11-22T18:25:10.732Z,9.40
2017-11-22T18:27:40.382Z,9.30
2017-11-22T18:30:10.436Z,9.30
2017-11-22T18:32:40.873Z,9.20
2017-11-22T18:35:10.990Z,9.20
2017-11-22T18:37:41.395Z,9.10
2017-11-22T18:40:10.774Z,9.10
2017-11-22T18:42:40.426Z,9.10
2017-11-22T18:45:10.103Z,9.10
2017-11-22T18:47:41.339Z,9.00
2017-11-22T18:50:11.379Z,9.00
2017-11-22T18:52:41.023Z,9.00
2017-11-22T18:55:11.059Z,9.00
2017-11-22T18:57:40.838Z,8.90
2017-11-22T19:00:10.982Z,8.80
2017-11-22T19:02:40.440Z,8.80
2017-11-22T19:05:10.423Z,8.70
2017-11-22T19:07:39.424Z,8.70
2017-11-22T19:10:09.083Z,8.70
2017-11-22T19:12:38.782Z,8.60
2017-11-22T19:15:08.445Z,8.60
2017-11-22T19:17:38.145Z,8.50
2017-11-22T19:20:07.783Z,8.50
2017-11-22T19:22:37.090Z,8.40
2017-11-22T19:25:06.784Z,8.40
2017-11-22T19:27:36.428Z,8.30
2017-11-22T19:30:06.118Z,8.30
2017-11-22T19:32:35.423Z,8.30
2017-11-22T19:35:04.926Z,8.20
2017-11-22T19:37:34.639Z,8.10
2017-11-22T19:40:03.983Z,8.10
2017-11-22T19:42:34.241Z,7.90
2017-11-22T19:45:03.890Z,7.90
2017-11-22T19:47:33.579Z,8.00
2017-11-22T19:50:03.218Z,7.90
2017-11-22T19:52:32.903Z,7.90
2017-11-22T19:55:02.548Z,7.80
2017-11-22T19:57:32.995Z,7.80
2017-11-22T20:00:03.616Z,7.80
2017-11-22T20:02:33.078Z,7.80
2017-11-22T20:05:02.788Z,7.70
2017-11-22T20:07:44.203Z,7.70
2017-11-22T20:10:14.464Z,7.70
2017-11-22T20:12:44.118Z,7.70
2017-11-22T20:15:13.824Z,7.70
2017-11-22T20:17:43.498Z,7.70
2017-11-22T20:20:13.174Z,7.60
2017-11-22T20:22:42.837Z,7.60
2017-11-22T20:25:12.511Z,7.60
2017-11-22T20:27:42.163Z,7.50
2017-11-22T20:30:11.837Z,7.50
2017-11-22T20:32:41.522Z,7.50
2017-11-22T20:35:11.947Z,7.40
2017-11-22T20:37:42.395Z,7.40
2017-11-22T20:40:12.063Z,7.40
2017-11-22T20:42:42.515Z,7.30
2017-11-22T20:45:12.164Z,7.30
2017-11-22T20:47:41.854Z,7.30
2017-11-22T20:50:11.521Z,7.30
2017-11-22T20:52:41.214Z,7.30
2017-11-22T20:55:10.900Z,7.20
2017-11-22T20:57:40.579Z,7.30
2017-11-22T21:00:10.243Z,7.30
2017-11-22T21:02:39.753Z,7.30
2017-11-22T21:05:09.411Z,7.20
2017-11-22T21:07:38.908Z,7.20
2017-11-22T21:10:08.557Z,7.30
2017-11-22T21:12:38.224Z,7.20
2017-11-22T21:15:07.268Z,7.20
2017-11-22T21:17:36.911Z,7.20
2017-11-22T21:20:07.372Z,7.10
2017-11-22T21:22:37.063Z,7.10
2017-11-22T21:25:07.522Z,7.10
2017-11-22T21:27:37.165Z,7.00
2017-11-22T21:30:06.876Z,7.10
2017-11-22T21:32:36.538Z,7.00
2017-11-22T21:35:06.253Z,7.00
2017-11-22T21:37:35.900Z,7.00
2017-11-22T21:40:05.652Z,7.00
2017-11-22T21:42:35.165Z,7.00
2017-11-22T21:45:04.867Z,7.00
2017-11-22T21:47:35.303Z,6.90
2017-11-22T21:50:04.987Z,6.90
2017-11-22T21:52:35.224Z,6.70
2017-11-22T21:55:04.912Z,6.70
2017-11-22T21:57:34.570Z,6.70
2017-11-22T22:00:04.261Z,6.70
2017-11-22T22:02:34.767Z,6.70
2017-11-22T22:05:05.920Z,6.60
2017-11-22T22:07:35.622Z,6.60
2017-11-22T22:10:06.042Z,6.70
2017-11-22T22:12:35.544Z,6.70
2017-11-22T22:15:05.518Z,6.70
2017-11-22T22:17:35.321Z,6.70
2017-11-22T22:20:04.981Z,6.60
2017-11-22T22:22:34.673Z,6.70
2017-11-22T22:25:04.322Z,6.70
2017-11-22T22:27:34.790Z,6.60
2017-11-22T22:30:04.440Z,6.60
2017-11-22T22:32:33.935Z,6.60
2017-11-22T22:35:03.590Z,6.60
2017-11-22T22:37:33.266Z,6.60
2017-11-22T22:40:02.927Z,6.60
2017-11-22T22:42:32.615Z,6.50
2017-11-22T22:45:03.039Z,6.50
2017-11-22T22:47:33.488Z,6.50
2017-11-22T22:50:03.143Z,6.50
2017-11-22T22:52:32.852Z,6.50
2017-11-22T22:55:02.495Z,6.50
2017-11-22T22:57:32.946Z,6.50
2017-11-22T23:00:02.596Z,6.50
2017-11-22T23:02:32.167Z,6.50
2017-11-22T23:05:01.623Z,6.50
2017-11-22T23:07:31.879Z,6.50
2017-11-22T23:10:01.545Z,6.50
2017-11-22T23:12:32.731Z,6.50
2017-11-22T23:15:02.407Z,6.40
2017-11-22T23:17:32.061Z,6.40
2017-11-22T23:20:01.776Z,6.40
2017-11-22T23:22:32.299Z,6.30
2017-11-22T23:25:02.006Z,6.30
2017-11-22T23:27:31.508Z,6.30
2017-11-22T23:30:01.195Z,6.30
2017-11-22T23:32:31.628Z,6.30
2017-11-22T23:35:01.154Z,6.30
2017-11-22T23:37:30.818Z,6.20
2017-11-22T23:40:00.512Z,6.10
2017-11-22T23:42:30.211Z,6.00
2017-11-22T23:44:59.993Z,6.00
2017-11-22T23:47:29.499Z,6.00
2017-11-22T23:49:59.191Z,5.90
2017-11-22T23:52:29.639Z,5.80
2017-11-22T23:54:59.336Z,5.80
2017-11-22T23:57:29.070Z,5.80
2017-11-22T23:59:58.565Z,5.70
